Time;durP1;ratioP1;P1;durP2;ratioP2;P2;SDS_P1;SDS_P2;PMS_P1;PMS_P2;Temp;Humidity;BMP_temperature;BMP_pressure;BME280_temperature;BME280_humidity;BME280_pressure;Samples;Min_cycle;Max_cycle;Signal;HPM_P1;HPM_P2
2023/10/07 00:03:20;;;;;;;5.60;2.50;;;;;;;4.06;100.00;101483.53;102755;1298;60529;-86
2023/10/07 00:06:03;;;;;;;8.20;2.90;;;;;;;4.00;100.00;101484.92;103358;1292;600148;-86
2023/10/07 00:08:29;;;;;;;11.60;2.90;;;;;;;3.92;100.00;101487.24;106297;1290;58239;-87
2023/10/07 00:10:59;;;;;;;10.90;3.10;;;;;;;3.90;100.00;101484.98;106629;1288;57990;-88
2023/10/07 00:13:30;;;;;;;14.40;3.40;;;;;;;3.85;100.00;101480.09;106485;1288;72072;-88
2023/10/07 00:15:56;;;;;;;11.40;3.70;;;;;;;3.81;100.00;101481.02;106461;1288;73566;-88
2023/10/07 00:18:23;;;;;;;9.10;3.10;;;;;;;3.80;100.00;101484.98;106637;1287;58497;-88
2023/10/07 00:20:54;;;;;;;9.70;3.20;;;;;;;3.76;100.00;101488.60;106556;1286;240809;-88
2023/10/07 00:23:21;;;;;;;10.80;3.30;;;;;;;3.72;100.00;101490.93;106862;1285;60036;-88
2023/10/07 00:25:53;;;;;;;13.60;4.00;;;;;;;3.66;100.00;101487.48;106853;1285;72974;-89
2023/10/07 00:28:32;;;;;;;12.10;3.70;;;;;;;3.63;100.00;101493.17;106520;1286;73557;-89
2023/10/07 00:31:03;;;;;;;8.30;3.20;;;;;;;3.59;100.00;101495.55;106621;1286;73231;-88
2023/10/07 00:34:12;;;;;;;10.50;3.70;;;;;;;3.59;100.00;101493.45;106825;1285;60992;-88
2023/10/07 00:38:59;;;;;;;13.60;4.20;;;;;;;3.69;100.00;101502.39;106769;1286;72767;-88
2023/10/07 00:41:36;;;;;;;11.00;4.00;;;;;;;3.75;100.00;101498.55;106812;1285;58195;-89
2023/10/07 00:44:16;;;;;;;13.80;3.70;;;;;;;3.82;100.00;101499.48;106841;1285;73442;-88
2023/10/07 00:46:44;;;;;;;10.20;3.20;;;;;;;3.89;100.00;101502.29;106489;1286;61812;-87
2023/10/07 00:49:20;;;;;;;8.00;3.30;;;;;;;3.99;100.00;101500.30;106747;1286;61529;-88
2023/10/07 00:51:49;;;;;;;8.80;3.30;;;;;;;4.09;100.00;101500.14;106849;1285;74001;-89
2023/10/07 00:57:47;;;;;;;12.10;3.50;;;;;;;4.22;100.00;101489.88;103740;1283;600350;-88
2023/10/07 01:02:46;;;;;;;17.50;4.50;;;;;;;4.23;100.00;101490.05;103523;1291;60915;-87
2023/10/07 01:05:26;;;;;;;17.50;4.40;;;;;;;4.19;100.00;101487.52;103535;1288;75323;-88
2023/10/07 01:07:55;;;;;;;13.50;3.50;;;;;;;4.18;100.00;101481.65;103752;1286;74813;-86
2023/10/07 01:10:42;;;;;;;16.90;3.70;;;;;;;4.17;100.00;101479.98;102945;1293;599764;-87
2023/10/07 01:13:26;;;;;;;17.00;4.10;;;;;;;4.09;100.00;101476.75;103093;1293;60403;-87
2023/10/07 01:15:53;;;;;;;12.60;3.60;;;;;;;4.04;100.00;101471.98;102770;1293;60505;-88
2023/10/07 01:18:19;;;;;;;17.70;4.20;;;;;;;3.96;100.00;101470.98;103085;1295;74409;-87
2023/10/07 01:23:22;;;;;;;16.60;4.30;;;;;;;3.81;100.00;101464.77;102892;1292;382026;-87
2023/10/07 01:25:50;;;;;;;14.20;4.20;;;;;;;3.71;100.00;101465.59;103329;1289;61656;-88
2023/10/07 01:28:17;;;;;;;17.00;4.30;;;;;;;3.66;100.00;101462.39;103410;1289;60574;-88
2023/10/07 01:31:12;;;;;;;13.00;4.40;;;;;;;3.60;100.00;101459.89;102945;1290;599966;-88
2023/10/07 01:33:46;;;;;;;17.40;4.30;;;;;;;3.48;100.00;101461.75;103179;1292;60461;-87
2023/10/07 01:36:30;;;;;;;11.70;4.00;;;;;;;3.43;100.00;101457.27;103261;1290;600361;-88
2023/10/07 01:39:12;;;;;;;12.00;3.90;;;;;;;3.39;100.00;101452.41;103505;1287;600360;-88
2023/10/07 01:41:39;;;;;;;13.50;3.90;;;;;;;3.34;100.00;101453.08;103606;1290;60319;-89
2023/10/07 01:44:05;;;;;;;14.70;4.40;;;;;;;3.30;100.00;101457.81;103637;1291;60409;-88
2023/10/07 01:46:33;;;;;;;18.00;4.90;;;;;;;3.23;100.00;101459.95;103571;1286;60485;-89
2023/10/07 01:49:17;;;;;;;12.30;3.70;;;;;;;3.16;100.00;101457.92;103130;1292;601179;-87
2023/10/07 01:51:44;;;;;;;9.10;3.50;;;;;;;3.07;100.00;101457.45;102966;1290;61156;-88
2023/10/07 01:54:11;;;;;;;17.50;4.30;;;;;;;3.04;100.00;101459.96;103573;1291;60384;-88
2023/10/07 01:56:38;;;;;;;13.00;4.10;;;;;;;2.98;100.00;101458.38;103794;1287;74300;-87
2023/10/07 02:01:43;;;;;;;15.80;4.20;;;;;;;2.84;100.00;101460.89;103687;1288;71740;-88
2023/10/07 02:04:18;;;;;;;11.50;4.40;;;;;;;2.78;100.00;101462.62;103912;1282;61709;-88
2023/10/07 02:06:51;;;;;;;13.90;4.20;;;;;;;2.69;100.00;101462.73;103874;1283;60660;-88
2023/10/07 02:09:27;;;;;;;13.20;4.10;;;;;;;2.63;100.00;101465.80;104047;1286;73577;-89
2023/10/07 02:11:55;;;;;;;9.00;3.60;;;;;;;2.59;100.00;101470.16;103836;1289;75226;-87
2023/10/07 02:17:56;;;;;;;11.90;3.90;;;;;;;2.57;100.00;101473.25;103198;1289;601983;-86
2023/10/07 02:20:38;;;;;;;15.90;4.60;;;;;;;2.54;100.00;101471.00;103411;1290;60508;-88
2023/10/07 02:23:15;;;;;;;17.30;5.50;;;;;;;2.56;100.00;101474.84;103288;1289;60680;-89
2023/10/07 02:25:41;;;;;;;17.20;6.10;;;;;;;2.54;100.00;101472.89;103625;1291;73712;-87
2023/10/07 02:28:29;;;;;;;18.00;6.70;;;;;;;2.55;100.00;101470.86;103281;1290;600101;-87
2023/10/07 02:31:01;;;;;;;16.50;6.20;;;;;;;2.53;100.00;101468.48;103516;1289;61374;-88
2023/10/07 02:33:31;;;;;;;31.10;6.50;;;;;;;2.51;100.00;101461.23;103312;1289;61832;-87
2023/10/07 02:36:32;;;;;;;20.30;6.90;;;;;;;2.56;100.00;101464.23;102925;1295;614677;-88
2023/10/07 02:39:04;;;;;;;24.60;7.40;;;;;;;2.52;100.00;101458.61;106736;1286;58223;-88
2023/10/07 02:41:31;;;;;;;20.80;7.50;;;;;;;2.53;100.00;101460.46;106717;1286;61118;-88
2023/10/07 02:44:04;;;;;;;20.70;6.70;;;;;;;2.57;100.00;101460.23;106670;1286;72853;-88
2023/10/07 02:46:33;;;;;;;;;;;;;;;2.58;100.00;101458.08;106554;1286;74157;-89
2023/10/07 02:49:05;;;;;;;16.90;6.20;;;;;;;2.59;100.00;101452.63;106403;1285;391196;-88
2023/10/07 02:51:32;;;;;;;16.20;6.80;;;;;;;2.59;100.00;101450.39;106928;1288;59839;-88
2023/10/07 02:54:06;;;;;;;24.20;6.30;;;;;;;2.60;100.00;101448.24;106939;1284;61336;-89
2023/10/07 02:56:43;;;;;;;24.60;6.30;;;;;;;2.65;100.00;101439.13;106589;1285;73008;-89
2023/10/07 02:59:25;;;;;;;17.50;6.50;;;;;;;2.68;100.00;101437.37;106958;1286;74279;-89
2023/10/07 03:04:36;;;;;;;14.80;5.90;;;;;;;2.65;100.00;101422.23;106953;1285;60997;-88
2023/10/07 03:07:13;;;;;;;17.00;6.10;;;;;;;2.65;100.00;101423.66;106937;1285;59264;-88
2023/10/07 03:09:45;;;;;;;23.70;6.40;;;;;;;2.63;100.00;101421.51;106928;1285;72803;-88
2023/10/07 03:12:15;;;;;;;21.00;6.20;;;;;;;2.62;100.00;101415.08;106961;1286;74366;-87
2023/10/07 03:14:43;;;;;;;18.40;5.90;;;;;;;2.59;100.00;101413.23;106917;1286;72501;-89
2023/10/07 03:17:18;;;;;;;12.40;5.10;;;;;;;2.59;100.00;101416.24;106713;1289;61119;-88
2023/10/07 03:19:58;;;;;;;16.30;5.80;;;;;;;2.58;100.00;101417.52;106735;1286;59888;-87
2023/10/07 03:22:32;;;;;;;17.90;6.30;;;;;;;2.55;100.00;101409.87;106618;1286;72819;-87
2023/10/07 03:25:03;;;;;;;20.50;5.60;;;;;;;2.55;100.00;101418.61;106852;1286;73578;-86
2023/10/07 03:27:28;;;;;;;18.00;5.80;;;;;;;2.54;100.00;101415.84;106791;1286;72456;-88
2023/10/07 03:30:12;;;;;;;22.10;6.10;;;;;;;2.56;100.00;101414.54;106881;1285;58162;-88
2023/10/07 03:32:57;;;;;;;;;;;;;;;2.58;100.00;101416.52;106489;1289;58909;-88
2023/10/07 03:35:35;;;;;;;16.60;6.20;;;;;;;2.59;100.00;101410.48;106937;1286;73674;-89
2023/10/07 03:38:10;;;;;;;11.40;5.70;;;;;;;2.60;100.00;101408.48;106551;1286;73776;-88
2023/10/07 03:40:38;;;;;;;17.90;6.60;;;;;;;2.62;100.00;101405.13;106921;1285;71378;-88
2023/10/07 03:43:06;;;;;;;17.70;6.20;;;;;;;2.64;100.00;101408.17;106410;1289;59486;-88
2023/10/07 03:45:32;;;;;;;18.60;6.50;;;;;;;2.65;100.00;101410.23;106755;1286;60213;-89
2023/10/07 03:47:58;;;;;;;13.30;6.40;;;;;;;2.62;100.00;101402.92;106723;1284;58279;-89
2023/10/07 03:50:34;;;;;;;17.50;6.30;;;;;;;2.63;100.00;101396.08;106855;1285;58226;-88
2023/10/07 03:53:05;;;;;;;19.60;6.50;;;;;;;2.65;100.00;101394.20;106677;1286;73324;-89
2023/10/07 03:55:31;;;;;;;18.10;6.30;;;;;;;2.66;100.00;101386.30;106869;1286;60629;-89
2023/10/07 03:57:56;;;;;;;27.70;7.20;;;;;;;2.67;100.00;101382.52;106751;1286;58246;-89
2023/10/07 04:00:30;;;;;;;16.70;6.50;;;;;;;2.71;100.00;101377.88;106770;1287;58470;-89
2023/10/07 04:03:01;;;;;;;25.20;7.30;;;;;;;2.79;100.00;101378.44;106697;1286;73557;-90
2023/10/07 04:05:31;;;;;;;15.90;7.40;;;;;;;2.86;100.00;101375.36;106742;1286;73603;-90
2023/10/07 04:08:02;;;;;;;21.70;8.70;;;;;;;2.93;100.00;101375.72;106735;1286;58186;-90
2023/10/07 04:10:37;;;;;;;31.10;9.40;;;;;;;3.00;100.00;101381.20;106453;1285;60139;-90
2023/10/07 04:13:07;;;;;;;34.80;12.10;;;;;;;3.11;100.00;101379.73;106757;1285;72081;-90
2023/10/07 04:15:51;;;;;;;39.50;12.80;;;;;;;3.23;100.00;101377.80;106914;1285;73298;-90
2023/10/07 04:18:17;;;;;;;30.10;11.10;;;;;;;3.40;100.00;101379.54;106478;1285;73585;-90
2023/10/07 04:23:24;;;;;;;30.80;10.60;;;;;;;3.87;100.00;101383.92;106259;1289;58970;-90
2023/10/07 04:25:51;;;;;;;34.60;11.50;;;;;;;4.10;100.00;101379.84;106364;1289;73667;-90
2023/10/07 04:28:17;;;;;;;35.60;11.80;;;;;;;4.35;100.00;101375.39;106245;1290;73360;-88
2023/10/07 04:30:47;;;;;;;33.30;12.10;;;;;;;4.60;100.00;101375.14;106059;1292;58212;-88
2023/10/07 04:33:25;;;;;;;33.90;12.70;;;;;;;4.90;100.00;101371.18;106131;1292;60769;-89
2023/10/07 04:57:56;;;;;;;70.00;25.20;;;;;;;7.97;100.00;101366.31;108566;1259;1003232;-81
2023/10/07 05:03:03;;;;;;;51.90;18.20;;;;;;;8.43;100.00;101375.05;106340;1261;71290;-81
2023/10/07 05:05:35;;;;;;;48.90;16.70;;;;;;;8.71;100.00;101376.18;106124;1260;61323;-81
2023/10/07 05:08:17;;;;;;;42.40;12.60;;;;;;;8.96;100.00;101373.63;106384;1259;60234;-81
2023/10/07 05:10:52;;;;;;;30.20;10.60;;;;;;;9.30;100.00;101375.11;106110;1267;71805;-81
2023/10/07 05:13:19;;;;;;;33.40;10.50;;;;;;;9.79;100.00;101377.42;106076;1263;73305;-81
2023/10/07 05:15:44;;;;;;;25.00;9.30;;;;;;;10.27;100.00;101374.87;106028;1267;73516;-81
2023/10/07 05:18:12;;;;;;;30.00;8.40;;;;;;;10.92;100.00;101375.04;106001;1268;60384;-81
2023/10/07 05:20:41;;;;;;;19.60;8.70;;;;;;;11.87;100.00;101370.86;106112;1267;60144;-81
2023/10/07 05:23:09;;;;;;;24.90;8.80;;;;;;;12.87;100.00;101372.70;106103;1265;74242;-81
2023/10/07 05:25:43;;;;;;;23.10;8.10;;;;;;;13.69;100.00;101373.11;106070;1263;72896;-82
2023/10/07 05:28:16;;;;;;;24.00;7.50;;;;;;;14.71;100.00;101371.70;106057;1263;73735;-81
2023/10/07 05:30:50;;;;;;;;;;;;;;;15.93;97.10;101364.30;106089;1263;60340;-82
2023/10/07 05:33:24;;;;;;;29.80;8.20;;;;;;;16.85;88.47;101363.48;106104;1263;60989;-83
2023/10/07 05:35:50;;;;;;;28.00;10.10;;;;;;;18.18;81.81;101348.42;105989;1263;74551;-84
2023/10/07 05:38:19;;;;;;;45.20;10.70;;;;;;;19.27;73.57;101342.85;106053;1263;60210;-83
2023/10/07 05:40:47;;;;;;;21.20;6.20;;;;;;;20.48;66.84;101333.85;105706;1263;73937;-86
2023/10/07 05:43:49;;;;;;;20.30;6.60;;;;;;;21.59;60.07;101320.77;102843;1290;614988;-83
2023/10/07 05:46:32;;;;;;;25.60;6.80;;;;;;;22.82;56.46;101309.21;103030;1293;600338;-86
2023/10/07 05:49:01;;;;;;;26.70;7.30;;;;;;;23.78;52.24;101302.09;103285;1294;60367;-86
2023/10/07 05:51:29;;;;;;;16.30;6.00;;;;;;;24.59;49.94;101303.74;103322;1290;61340;-87
2023/10/07 05:53:58;;;;;;;20.30;6.20;;;;;;;25.35;47.37;101306.34;106388;1286;72157;-88
2023/10/07 05:56:27;;;;;;;14.40;6.20;;;;;;;26.13;44.22;101299.09;106305;1286;72763;-86
2023/10/07 05:59:01;;;;;;;15.90;5.80;;;;;;;26.86;43.62;101289.14;106355;1286;73321;-88
2023/10/07 06:01:33;;;;;;;19.40;5.90;;;;;;;27.73;41.54;101287.31;106218;1284;59784;-88
2023/10/07 06:04:24;;;;;;;23.10;7.20;;;;;;;28.61;39.74;101281.65;106422;1288;61477;-84
2023/10/07 06:07:06;;;;;;;22.60;8.00;;;;;;;29.21;37.58;101282.80;106301;1289;72560;-84
2023/10/07 06:09:35;;;;;;;19.70;6.30;;;;;;;30.00;36.92;101286.67;106235;1287;74385;-85
2023/10/07 06:12:07;;;;;;;16.50;5.00;;;;;;;30.20;35.16;101290.69;106460;1288;72585;-85
2023/10/07 06:16:06;;;;;;;13.40;3.80;;;;;;;30.05;34.00;101291.67;106321;1288;59833;-85
2023/10/07 06:18:24;;;;;;;19.10;4.70;;;;;;;29.62;33.16;101292.38;106015;1293;59747;-85
2023/10/07 06:21:14;;;;;;;9.50;3.80;;;;;;;29.53;32.67;101293.09;105976;1294;73629;-85
2023/10/07 06:24:13;;;;;;;8.40;4.20;;;;;;;29.37;32.28;101288.70;105596;1300;75942;-85
2023/10/07 06:27:20;;;;;;;10.20;4.00;;;;;;;29.04;32.11;101286.86;104699;1310;72649;-86
2023/10/07 06:29:48;;;;;;;9.70;3.60;;;;;;;28.67;32.03;101281.63;103935;1317;60003;-86
2023/10/07 06:36:02;;;;;;;;;;;;;;;;;;;;;
2023/10/07 06:38:31;;;;;;;14.20;3.90;;;;;;;29.46;31.39;101278.69;103994;1317;74901;-87
2023/10/07 06:41:09;;;;;;;;;;;;;;;;;;;;;
2023/10/07 06:57:10;;;;;;;14.80;3.90;;;;;;;32.37;27.18;101240.33;103830;1283;612796;-90
2023/10/07 06:59:40;;;;;;;17.00;3.90;;;;;;;31.36;26.47;101230.98;103414;1291;206108;-94
2023/10/07 07:02:06;;;;;;;20.50;3.80;;;;;;;30.12;27.29;101228.91;103428;1288;61887;-93
2023/10/07 07:04:32;;;;;;;17.30;3.70;;;;;;;29.16;28.09;101228.30;102980;1290;61754;-91
2023/10/07 07:09:59;;;;;;;12.30;3.90;;;;;;;27.24;29.35;101229.73;103184;1293;601210;-91
2023/10/07 07:12:35;;;;;;;17.70;4.20;;;;;;;26.35;30.47;101224.83;102791;1301;60419;-89
2023/10/07 07:15:09;;;;;;;16.70;4.30;;;;;;;25.68;31.09;101219.67;102991;1292;61776;-86
2023/10/07 07:22:46;;;;;;;19.50;4.20;;;;;;;22.99;33.47;101191.56;102337;1297;414035;-92
2023/10/07 07:27:52;;;;;;;15.40;4.50;;;;;;;21.65;35.39;101195.80;102414;1298;60516;-88
2023/10/07 07:30:29;;;;;;;14.90;4.30;;;;;;;21.16;36.23;101201.11;102528;1300;60353;-89
2023/10/07 07:32:58;;;;;;;27.40;5.90;;;;;;;20.88;36.67;101213.83;102564;1298;75057;-87
2023/10/07 07:35:37;;;;;;;21.30;5.00;;;;;;;20.55;37.13;101220.69;102519;1300;73935;-86
2023/10/07 07:42:00;;;;;;;20.60;5.40;;;;;;;19.82;38.07;101204.61;102422;1297;62121;-86
2023/10/07 07:44:00;;;;;;;17.90;5.40;;;;;;;19.61;38.50;101195.25;102225;1298;74075;-89
2023/10/07 07:46:51;;;;;;;13.60;5.40;;;;;;;19.32;38.62;101183.54;102775;1291;600355;-88
2023/10/07 07:49:39;;;;;;;17.70;5.90;;;;;;;19.29;39.46;101174.63;102790;1294;600093;-89
2023/10/07 07:52:08;;;;;;;28.80;6.10;;;;;;;19.42;39.40;101172.06;102620;1308;60292;-89
2023/10/07 07:54:33;;;;;;;19.60;5.60;;;;;;;19.32;39.37;101158.08;102715;1293;60785;-88
2023/10/07 07:57:04;;;;;;;14.50;4.90;;;;;;;19.22;39.56;101161.01;103040;1291;60495;-90
2023/10/07 07:59:32;;;;;;;24.40;4.60;;;;;;;19.14;39.78;101159.41;102858;1294;74864;-89
2023/10/07 08:02:11;;;;;;;22.40;5.40;;;;;;;18.98;39.98;101165.30;102967;1297;73233;-88
2023/10/07 08:04:52;;;;;;;19.30;5.30;;;;;;;19.02;39.98;101163.86;102878;1289;61452;-89
2023/10/07 08:09:55;;;;;;;25.20;4.30;;;;;;;19.04;39.97;101155.79;103084;1291;72893;-90
2023/10/07 08:12:34;;;;;;;16.30;4.60;;;;;;;19.01;39.95;101144.21;103192;1294;74851;-92
2023/10/07 08:17:56;;;;;;;15.90;4.70;;;;;;;18.86;40.00;101134.70;103040;1294;60805;-93
2023/10/07 08:28:18;;;;;;;13.50;4.60;;;;;;;18.17;41.14;101110.02;103118;1296;60399;-91
2023/10/07 08:30:47;;;;;;;16.20;4.40;;;;;;;17.91;41.70;101112.73;103075;1289;60313;-87
2023/10/07 08:33:22;;;;;;;17.30;4.20;;;;;;;17.68;41.94;101110.37;103265;1289;73750;-89
2023/10/07 08:35:51;;;;;;;19.30;4.40;;;;;;;17.46;42.27;101103.65;102897;1292;74010;-90
2023/10/07 08:38:29;;;;;;;17.20;4.90;;;;;;;17.30;42.58;101100.44;102670;1290;340217;-90
2023/10/07 08:41:05;;;;;;;13.50;4.40;;;;;;;17.15;43.15;101097.95;102865;1289;62160;-89
2023/10/07 08:43:43;;;;;;;16.90;5.10;;;;;;;17.11;43.69;101096.67;103056;1295;61900;-92
2023/10/07 08:46:16;;;;;;;17.30;4.70;;;;;;;17.10;43.73;101092.41;102794;1294;74190;-93
2023/10/07 08:48:50;;;;;;;22.00;5.30;;;;;;;17.09;43.87;101090.23;102725;1293;74914;-91
2023/10/07 08:51:21;;;;;;;18.50;4.70;;;;;;;17.09;44.16;101082.28;102856;1296;75042;-93
2023/10/07 08:57:22;;;;;;;12.70;3.90;;;;;;;17.22;44.36;101071.17;103172;1289;599484;-91
2023/10/07 08:59:52;;;;;;;21.50;4.50;;;;;;;17.34;44.30;101068.61;103052;1292;60876;-90
2023/10/07 09:02:27;;;;;;;22.70;5.80;;;;;;;17.52;44.39;101045.95;102829;1290;60400;-90
2023/10/07 09:09:43;;;;;;;9.50;3.10;;;;;;;18.50;43.20;101032.33;102708;1294;600126;-87
2023/10/07 09:12:46;;;;;;;;;;;;;;;;;;;;;
2023/10/07 09:15:26;;;;;;;10.00;3.20;;;;;;;19.19;41.90;101026.72;102723;1292;60240;-88
2023/10/07 09:18:10;;;;;;;12.00;2.60;;;;;;;19.65;41.03;101022.14;102927;1295;600979;-89
2023/10/07 09:20:45;;;;;;;17.20;3.10;;;;;;;19.90;40.55;101015.36;103052;1289;61593;-89
2023/10/07 09:23:20;;;;;;;23.10;3.40;;;;;;;20.18;40.24;101001.12;102614;1295;60337;-89
2023/10/07 09:25:50;;;;;;;10.30;2.70;;;;;;;20.42;39.79;100995.15;102592;1302;72504;-89
2023/10/07 09:28:38;;;;;;;16.40;2.60;;;;;;;20.62;39.25;100981.84;102962;1292;600678;-95
2023/10/07 09:31:08;;;;;;;28.60;3.10;;;;;;;20.66;38.73;100970.73;102748;1295;61768;-90
2023/10/07 09:37:09;;;;;;;8.50;2.80;;;;;;;20.87;38.61;100960.45;103852;1291;599568;-87
